Time;durP1;ratioP1;P1;durP2;ratioP2;P2;SDS_P1;SDS_P2;PMS_P1;PMS_P2;Temp;Humidity;BMP_temperature;BMP_pressure;BME280_temperature;BME280_humidity;BME280_pressure;Samples;Min_cycle;Max_cycle;Signal;HPM_P1;HPM_P2
2023/10/20 00:01:50;;;;;;;8.13;7.40;;;6.80;99.90;;;;;;5040130;28;20997;-60
2023/10/20 00:04:17;;;;;;;9.97;8.37;;;6.80;99.90;;;;;;5031713;28;20435;-60
2023/10/20 00:06:44;;;;;;;7.40;6.80;;;6.80;99.90;;;;;;5026523;28;20495;-59
2023/10/20 00:09:14;;;;;;;7.50;6.80;;;6.80;99.90;;;;;;5020003;28;21028;-60
2023/10/20 00:11:41;;;;;;;8.57;7.70;;;6.80;99.90;;;;;;5030923;28;20470;-60
2023/10/20 00:14:08;;;;;;;9.53;6.93;;;6.80;99.90;;;;;;5039406;28;20434;-59
2023/10/20 00:16:36;;;;;;;7.60;6.90;;;6.80;99.90;;;;;;5032686;28;20531;-58
2023/10/20 00:19:02;;;;;;;7.83;7.13;;;6.80;99.90;;;;;;5026953;28;20454;-59
2023/10/20 00:21:30;;;;;;;8.27;7.57;;;6.80;99.90;;;;;;5031060;28;20490;-59
2023/10/20 00:23:56;;;;;;;8.30;7.50;;;6.80;99.90;;;;;;5029480;28;20459;-59
2023/10/20 00:26:23;;;;;;;9.30;7.60;;;6.90;99.90;;;;;;5031891;28;20462;-59
2023/10/20 00:28:50;;;;;;;8.40;7.30;;;6.80;99.90;;;;;;5039968;28;20529;-59
2023/10/20 00:31:17;;;;;;;7.40;6.70;;;6.80;99.90;;;;;;5035361;28;20549;-59
2023/10/20 00:33:45;;;;;;;7.20;6.60;;;6.80;99.90;;;;;;5026644;28;20517;-59
2023/10/20 00:36:12;;;;;;;7.07;6.37;;;6.80;99.90;;;;;;5034424;28;20458;-59
2023/10/20 00:38:39;;;;;;;8.60;6.83;;;6.80;99.90;;;;;;5026974;28;20568;-58
2023/10/20 00:41:05;;;;;;;6.63;5.97;;;6.80;99.90;;;;;;5024459;28;20468;-60
2023/10/20 00:43:36;;;;;;;5.70;5.20;;;6.80;99.90;;;;;;5037801;28;20466;-59
2023/10/20 00:46:05;;;;;;;7.00;6.30;;;6.80;99.90;;;;;;5040353;28;20446;-59
2023/10/20 00:48:32;;;;;;;6.63;6.03;;;6.80;99.90;;;;;;5037614;28;20451;-58
2023/10/20 00:51:01;;;;;;;10.80;6.03;;;6.80;99.90;;;;;;5033329;28;20872;-60
2023/10/20 00:53:28;;;;;;;6.77;6.13;;;6.90;99.90;;;;;;5030853;28;20933;-59
2023/10/20 00:55:57;;;;;;;6.73;6.23;;;6.90;99.90;;;;;;5030227;28;20463;-59
2023/10/20 00:58:25;;;;;;;9.27;6.63;;;6.90;99.90;;;;;;5020682;28;20490;-59
2023/10/20 01:00:52;;;;;;;5.60;5.20;;;6.90;99.90;;;;;;5030139;28;20495;-59
2023/10/20 01:03:18;;;;;;;6.27;5.77;;;6.90;99.90;;;;;;5030588;28;20496;-59
2023/10/20 01:05:45;;;;;;;6.47;5.87;;;6.90;99.90;;;;;;5038504;28;20548;-59
2023/10/20 01:08:13;;;;;;;5.20;4.77;;;6.90;99.90;;;;;;5033977;28;20505;-59
2023/10/20 01:10:40;;;;;;;5.87;5.47;;;6.90;99.90;;;;;;5035332;28;20494;-60
2023/10/20 01:13:08;;;;;;;5.50;5.00;;;6.90;99.90;;;;;;5029624;28;20467;-60
2023/10/20 01:15:36;;;;;;;5.33;4.83;;;6.90;99.90;;;;;;5037527;28;20473;-59
2023/10/20 01:18:02;;;;;;;5.43;4.93;;;6.90;99.90;;;;;;5041823;28;20517;-60
2023/10/20 01:20:29;;;;;;;5.73;5.20;;;6.80;99.90;;;;;;5034567;28;20474;-60
2023/10/20 01:22:58;;;;;;;5.40;4.37;;;6.90;99.90;;;;;;5031244;28;20459;-59
2023/10/20 01:25:26;;;;;;;5.00;4.57;;;6.90;99.90;;;;;;5026214;28;20439;-59
2023/10/20 01:27:53;;;;;;;4.80;4.37;;;6.90;99.90;;;;;;5034413;28;20465;-59
2023/10/20 01:30:20;;;;;;;5.30;4.80;;;6.90;99.90;;;;;;5034437;28;21028;-59
2023/10/20 01:32:47;;;;;;;4.23;3.83;;;6.90;99.90;;;;;;5033241;28;20858;-59
2023/10/20 01:35:14;;;;;;;5.23;4.73;;;6.90;99.90;;;;;;5036131;28;20497;-59
2023/10/20 01:37:41;;;;;;;4.83;4.43;;;6.90;99.90;;;;;;5034115;28;20487;-59
2023/10/20 01:40:09;;;;;;;4.13;3.83;;;6.90;99.90;;;;;;5028974;28;21028;-59
2023/10/20 01:42:37;;;;;;;4.70;4.30;;;7.00;99.90;;;;;;5033232;28;20909;-59
2023/10/20 01:45:05;;;;;;;3.67;3.40;;;6.90;99.90;;;;;;5031539;28;20466;-59
2023/10/20 01:47:31;;;;;;;4.70;4.30;;;6.90;99.90;;;;;;5039667;28;20876;-58
2023/10/20 01:49:58;;;;;;;4.60;4.20;;;6.90;99.90;;;;;;5034176;28;20474;-59
2023/10/20 01:52:29;;;;;;;4.40;4.07;;;6.90;99.90;;;;;;5033033;28;20439;-59
2023/10/20 01:54:56;;;;;;;4.13;3.83;;;6.90;99.90;;;;;;5039745;28;20465;-59
2023/10/20 01:57:22;;;;;;;3.80;3.50;;;6.90;99.90;;;;;;5031000;28;20486;-58
2023/10/20 01:59:50;;;;;;;3.80;3.50;;;6.90;99.90;;;;;;5036440;28;21026;-59
2023/10/20 02:02:18;;;;;;;3.63;3.43;;;6.90;99.90;;;;;;5034871;28;20459;-59
2023/10/20 02:04:44;;;;;;;3.77;3.40;;;6.90;99.90;;;;;;5036111;28;20496;-59
2023/10/20 02:07:12;;;;;;;3.30;3.10;;;6.90;99.90;;;;;;5038610;28;20897;-60
2023/10/20 02:09:38;;;;;;;3.37;3.17;;;6.90;99.90;;;;;;5044740;28;20468;-59
2023/10/20 02:12:05;;;;;;;5.10;3.13;;;6.90;99.90;;;;;;5038444;28;20513;-59
2023/10/20 02:14:33;;;;;;;4.77;3.20;;;6.80;99.90;;;;;;5033678;28;20465;-59
2023/10/20 02:17:00;;;;;;;2.80;2.67;;;6.90;99.90;;;;;;5030637;28;20854;-59
2023/10/20 02:19:27;;;;;;;3.43;3.03;;;6.80;99.90;;;;;;5031145;28;20540;-59
2023/10/20 02:21:55;;;;;;;3.07;2.87;;;6.80;99.90;;;;;;5034510;28;20462;-59
2023/10/20 02:24:21;;;;;;;2.70;2.50;;;6.80;99.90;;;;;;5032502;28;20459;-59
2023/10/20 02:26:48;;;;;;;2.70;2.50;;;6.80;99.90;;;;;;5030013;28;20548;-58
2023/10/20 02:29:14;;;;;;;2.87;2.67;;;6.80;99.90;;;;;;5034144;28;20522;-59
2023/10/20 02:31:41;;;;;;;2.77;2.57;;;6.80;99.90;;;;;;5033478;28;20467;-59
2023/10/20 02:34:09;;;;;;;2.90;2.70;;;6.80;99.90;;;;;;5041287;28;20549;-59
2023/10/20 02:36:36;;;;;;;2.10;2.00;;;6.80;99.90;;;;;;5031848;28;20533;-59
2023/10/20 02:39:02;;;;;;;2.70;2.60;;;6.80;99.90;;;;;;5031334;28;20509;-59
2023/10/20 02:41:29;;;;;;;2.47;2.37;;;6.80;99.90;;;;;;5043402;28;20519;-60
2023/10/20 02:43:56;;;;;;;2.47;2.27;;;6.80;99.90;;;;;;5031222;28;20465;-59
2023/10/20 02:46:22;;;;;;;2.40;2.20;;;6.80;99.90;;;;;;5038896;28;21268;-60
2023/10/20 02:48:49;;;;;;;4.07;1.90;;;6.80;99.90;;;;;;5028167;28;20521;-58
2023/10/20 02:51:17;;;;;;;2.30;2.13;;;6.80;99.90;;;;;;5030808;28;20467;-59
2023/10/20 02:53:44;;;;;;;2.00;1.77;;;6.80;99.90;;;;;;5031445;28;20467;-59
2023/10/20 02:56:13;;;;;;;1.80;1.70;;;6.80;99.90;;;;;;5041989;28;20470;-59
2023/10/20 02:58:40;;;;;;;2.00;1.90;;;6.80;99.90;;;;;;5038068;28;20488;-59
2023/10/20 03:01:07;;;;;;;1.77;1.67;;;6.70;99.90;;;;;;5024963;28;20463;-59
2023/10/20 03:03:34;;;;;;;1.60;1.50;;;6.70;99.90;;;;;;5035870;28;20459;-59
2023/10/20 03:06:01;;;;;;;2.03;1.83;;;6.60;99.90;;;;;;5039660;28;20539;-59
2023/10/20 03:08:29;;;;;;;1.53;1.30;;;6.60;99.90;;;;;;5038172;28;20513;-60
2023/10/20 03:10:57;;;;;;;2.13;2.03;;;6.60;99.90;;;;;;5041269;28;20555;-58
2023/10/20 03:13:23;;;;;;;4.73;2.13;;;6.60;99.90;;;;;;5039407;28;20459;-59
2023/10/20 03:15:50;;;;;;;1.67;1.57;;;6.60;99.90;;;;;;5028778;28;20463;-59
2023/10/20 03:18:17;;;;;;;1.73;1.63;;;6.60;99.90;;;;;;5029204;28;20497;-59
2023/10/20 03:20:44;;;;;;;1.27;1.17;;;6.60;99.90;;;;;;5024457;28;20570;-59
2023/10/20 03:23:11;;;;;;;1.67;1.57;;;6.50;99.90;;;;;;5032893;28;20522;-59
2023/10/20 03:25:38;;;;;;;1.60;1.50;;;6.60;99.90;;;;;;5032612;28;20536;-59
2023/10/20 03:28:06;;;;;;;1.67;1.57;;;6.60;99.90;;;;;;5033775;28;20765;-59
2023/10/20 03:30:38;;;;;;;1.90;1.80;;;6.50;99.90;;;;;;5031159;28;20443;-59
2023/10/20 03:33:05;;;;;;;1.50;1.40;;;6.50;99.90;;;;;;5030502;28;20575;-59
2023/10/20 03:35:32;;;;;;;1.37;1.30;;;6.50;99.90;;;;;;5031975;28;20537;-59
2023/10/20 03:38:00;;;;;;;1.77;1.67;;;6.50;99.90;;;;;;5029081;28;20689;-59
2023/10/20 03:40:30;;;;;;;1.70;1.60;;;6.50;99.90;;;;;;5033898;28;20459;-58
2023/10/20 03:42:58;;;;;;;1.53;1.43;;;6.50;99.90;;;;;;5032303;28;20451;-60
2023/10/20 03:45:25;;;;;;;1.57;1.47;;;6.50;99.90;;;;;;5030618;28;20466;-59
2023/10/20 03:47:53;;;;;;;1.30;1.30;;;6.50;99.90;;;;;;5031947;28;20847;-58
2023/10/20 03:50:19;;;;;;;1.27;1.17;;;6.50;99.90;;;;;;5022980;28;20498;-60
2023/10/20 03:52:48;;;;;;;1.87;1.77;;;6.50;99.90;;;;;;5029776;28;20468;-58
2023/10/20 03:55:15;;;;;;;1.40;1.40;;;6.50;99.90;;;;;;5030675;28;20543;-59
2023/10/20 03:57:42;;;;;;;1.57;1.47;;;6.50;99.90;;;;;;5036402;28;20465;-58
2023/10/20 04:00:28;;;;;;;1.73;1.63;;;6.50;99.90;;;;;;5042930;28;20646;-58
2023/10/20 04:02:55;;;;;;;1.87;1.77;;;6.50;99.90;;;;;;5035158;28;20490;-56
2023/10/20 04:05:22;;;;;;;1.77;1.60;;;6.50;99.90;;;;;;5032433;28;20474;-56
2023/10/20 04:07:49;;;;;;;1.60;1.50;;;6.50;99.90;;;;;;5029962;28;20520;-57
2023/10/20 04:10:18;;;;;;;1.50;1.40;;;6.50;99.90;;;;;;5029416;28;20473;-59
2023/10/20 04:12:45;;;;;;;1.80;1.70;;;6.40;99.90;;;;;;5031348;28;20483;-58
2023/10/20 04:15:15;;;;;;;1.30;1.20;;;6.40;99.90;;;;;;5038950;28;20473;-56
2023/10/20 04:17:44;;;;;;;1.40;1.40;;;6.50;99.90;;;;;;5031543;28;20470;-57
2023/10/20 04:20:17;;;;;;;1.93;1.83;;;6.50;99.90;;;;;;5024689;28;20487;-58
2023/10/20 04:22:49;;;;;;;1.37;1.37;;;6.50;99.90;;;;;;5033451;28;20577;-59
2023/10/20 04:25:17;;;;;;;1.30;1.20;;;6.40;99.90;;;;;;5038549;28;20498;-57
2023/10/20 04:27:49;;;;;;;1.33;1.23;;;6.40;99.90;;;;;;5020690;28;20491;-58
2023/10/20 04:47:30;;;;;;;1.30;1.27;;;6.30;99.90;;;;;;5028275;28;20581;-59
2023/10/20 04:50:00;;;;;;;1.70;1.60;;;6.30;99.90;;;;;;5027125;28;20461;-58
2023/10/20 04:57:52;;;;;;;1.90;1.80;;;6.40;99.90;;;;;;5001617;28;20459;-58
2023/10/20 05:00:37;;;;;;;1.73;1.63;;;6.30;99.90;;;;;;5030981;28;20487;-58
2023/10/20 05:03:29;;;;;;;1.93;1.83;;;6.30;99.90;;;;;;5039228;28;20485;-58
2023/10/20 05:06:05;;;;;;;2.50;2.40;;;6.30;99.90;;;;;;5034499;28;20956;-58
2023/10/20 05:08:32;;;;;;;2.50;1.80;;;6.40;99.90;;;;;;5034666;28;20454;-59
2023/10/20 05:10:59;;;;;;;3.20;2.03;;;6.40;99.90;;;;;;5030437;28;20462;-57
2023/10/20 05:13:26;;;;;;;2.17;2.07;;;6.30;99.90;;;;;;5033777;28;20465;-58
2023/10/20 05:15:53;;;;;;;2.40;2.30;;;6.40;99.90;;;;;;5041529;28;20449;-58
2023/10/20 05:18:21;;;;;;;2.37;2.20;;;6.20;99.90;;;;;;5030150;28;20482;-57
2023/10/20 05:20:48;;;;;;;2.53;2.43;;;6.30;99.90;;;;;;5047366;28;20510;-58
2023/10/20 05:23:15;;;;;;;2.37;2.27;;;6.30;99.90;;;;;;5042806;28;20518;-58
2023/10/20 05:25:48;;;;;;;2.87;2.63;;;6.20;99.90;;;;;;5042567;28;20447;-57
2023/10/20 05:28:16;;;;;;;4.70;2.80;;;6.30;99.90;;;;;;5033054;28;20458;-57
2023/10/20 05:30:44;;;;;;;2.63;2.43;;;6.20;99.90;;;;;;5032200;28;20472;-58
2023/10/20 05:33:12;;;;;;;3.20;3.00;;;6.20;99.90;;;;;;5040487;28;20458;-58
2023/10/20 05:35:40;;;;;;;3.20;3.00;;;6.20;99.90;;;;;;5038021;28;20440;-58
2023/10/20 05:38:07;;;;;;;2.80;2.60;;;6.20;99.90;;;;;;5044878;28;20980;-58
2023/10/20 05:40:35;;;;;;;3.10;2.90;;;6.20;99.90;;;;;;5034232;28;20487;-58
2023/10/20 05:43:03;;;;;;;3.73;3.43;;;6.20;99.90;;;;;;5042393;28;20445;-57
2023/10/20 05:45:32;;;;;;;3.73;3.43;;;6.20;99.90;;;;;;5033426;28;20447;-58
2023/10/20 05:48:00;;;;;;;2.93;2.80;;;6.20;99.90;;;;;;5041455;28;20833;-58
2023/10/20 05:50:27;;;;;;;2.97;2.80;;;6.20;99.90;;;;;;5030881;28;20462;-59
2023/10/20 05:52:55;;;;;;;3.87;3.57;;;6.20;99.90;;;;;;5031280;28;20455;-58
2023/10/20 05:55:22;;;;;;;3.80;3.43;;;6.20;99.90;;;;;;5032682;28;20517;-58
2023/10/20 05:57:49;;;;;;;3.43;3.13;;;6.30;99.90;;;;;;5030692;28;20522;-59
2023/10/20 06:00:16;;;;;;;3.70;3.43;;;6.30;99.90;;;;;;5030965;28;22127;-59
2023/10/20 06:02:46;;;;;;;3.40;3.13;;;6.30;99.90;;;;;;5016196;28;20563;-58
2023/10/20 06:05:13;;;;;;;4.17;3.77;;;6.30;99.90;;;;;;5035957;28;20450;-58
2023/10/20 06:07:41;;;;;;;3.30;3.10;;;6.20;99.90;;;;;;5046591;28;20516;-59
2023/10/20 06:10:11;;;;;;;4.73;4.20;;;6.20;99.90;;;;;;5045317;28;20457;-58
2023/10/20 06:12:38;;;;;;;3.47;3.27;;;6.20;99.90;;;;;;5046313;28;20446;-58
2023/10/20 06:15:06;;;;;;;3.70;3.40;;;6.20;99.90;;;;;;5055023;28;20920;-60
2023/10/20 06:17:33;;;;;;;3.70;3.40;;;6.20;99.90;;;;;;5045568;28;20494;-58
2023/10/20 06:20:04;;;;;;;3.57;3.27;;;6.20;99.90;;;;;;5033526;28;20489;-59
2023/10/20 06:22:31;;;;;;;4.00;3.60;;;6.20;99.90;;;;;;5027914;28;20463;-58
2023/10/20 06:24:59;;;;;;;3.20;3.00;;;6.20;99.90;;;;;;5032633;28;20470;-58
2023/10/20 06:27:27;;;;;;;6.03;3.93;;;6.20;99.90;;;;;;5035563;28;20482;-59
2023/10/20 06:29:58;;;;;;;3.80;3.03;;;6.10;99.90;;;;;;5038573;28;20524;-58
2023/10/20 06:32:25;;;;;;;3.27;2.97;;;6.20;99.90;;;;;;5030601;28;20456;-58
2023/10/20 06:34:57;;;;;;;4.13;3.83;;;6.20;99.90;;;;;;5032001;28;20466;-58
2023/10/20 06:37:28;;;;;;;4.90;3.60;;;6.10;99.90;;;;;;5038072;28;20479;-59
2023/10/20 06:39:56;;;;;;;5.20;4.70;;;6.20;99.90;;;;;;5030427;28;20518;-58
2023/10/20 06:42:24;;;;;;;3.73;3.43;;;6.10;99.90;;;;;;5031605;28;20948;-58
2023/10/20 06:44:52;;;;;;;3.47;3.20;;;6.10;99.90;;;;;;5021529;28;20464;-58
2023/10/20 06:47:20;;;;;;;4.00;3.70;;;6.20;99.90;;;;;;5025098;28;20995;-57
2023/10/20 06:49:46;;;;;;;4.03;3.67;;;6.10;99.90;;;;;;5025604;28;20816;-59
2023/10/20 06:52:17;;;;;;;4.00;3.70;;;6.10;99.90;;;;;;5028928;28;20459;-62
2023/10/20 06:54:44;;;;;;;7.63;4.77;;;6.20;99.90;;;;;;5037392;28;20492;-63
2023/10/20 06:57:10;;;;;;;3.97;3.67;;;6.10;99.90;;;;;;5035805;28;20514;-62
2023/10/20 06:59:37;;;;;;;4.20;3.80;;;6.10;99.90;;;;;;5031640;28;21007;-62
2023/10/20 07:02:05;;;;;;;3.73;3.43;;;6.10;99.90;;;;;;5037154;28;20576;-58
2023/10/20 07:04:32;;;;;;;4.30;3.90;;;6.20;99.90;;;;;;5033839;28;20862;-59
2023/10/20 07:06:59;;;;;;;3.70;3.40;;;6.10;99.90;;;;;;5029663;28;20487;-58
2023/10/20 07:09:26;;;;;;;3.50;3.20;;;6.10;99.90;;;;;;5031830;28;20875;-58
2023/10/20 07:11:53;;;;;;;4.50;4.10;;;6.00;99.90;;;;;;5027153;28;20439;-57
2023/10/20 07:14:20;;;;;;;4.57;4.17;;;6.00;99.90;;;;;;5047145;28;20441;-59
2023/10/20 07:16:47;;;;;;;4.70;4.10;;;6.00;99.90;;;;;;5026474;28;20479;-59
2023/10/20 07:19:15;;;;;;;4.10;3.80;;;6.00;99.90;;;;;;5038329;28;20482;-59
2023/10/20 07:21:41;;;;;;;4.83;3.80;;;6.00;99.90;;;;;;5041670;28;20517;-59
2023/10/20 07:24:09;;;;;;;4.80;4.10;;;5.90;99.90;;;;;;5030821;28;20880;-57
2023/10/20 07:26:35;;;;;;;7.97;4.80;;;6.00;99.90;;;;;;5040462;28;20536;-58
2023/10/20 07:29:02;;;;;;;5.33;3.70;;;5.90;99.90;;;;;;5033357;28;20444;-59
2023/10/20 07:31:29;;;;;;;4.47;4.10;;;5.90;99.90;;;;;;5035116;28;20538;-58
2023/10/20 07:33:56;;;;;;;4.10;3.80;;;5.90;99.90;;;;;;5035153;28;20463;-58
2023/10/20 07:36:24;;;;;;;4.40;3.90;;;5.90;99.90;;;;;;5048417;28;20480;-59
2023/10/20 07:38:50;;;;;;;4.50;4.10;;;5.80;99.90;;;;;;5029260;28;20463;-58
2023/10/20 07:41:17;;;;;;;6.30;4.87;;;5.90;99.90;;;;;;5021209;28;20467;-58
2023/10/20 07:43:44;;;;;;;4.10;3.60;;;5.90;99.90;;;;;;5032159;28;20617;-58
2023/10/20 07:46:15;;;;;;;3.67;3.47;;;5.90;99.90;;;;;;5032645;28;20463;-58
2023/10/20 07:48:42;;;;;;;7.80;4.13;;;5.90;99.90;;;;;;5036243;28;20483;-58
2023/10/20 07:51:09;;;;;;;3.87;3.57;;;6.00;99.90;;;;;;5031636;28;20455;-62
2023/10/20 07:53:37;;;;;;;3.63;3.33;;;6.00;99.90;;;;;;5024830;28;21021;-62
2023/10/20 07:56:04;;;;;;;3.93;3.43;;;6.00;99.90;;;;;;5029437;28;21124;-62
2023/10/20 07:58:32;;;;;;;5.30;3.87;;;6.00;99.90;;;;;;5031675;28;20497;-62
2023/10/20 08:01:00;;;;;;;3.43;3.23;;;6.10;99.90;;;;;;5021975;28;20537;-62
2023/10/20 08:03:27;;;;;;;3.97;3.70;;;6.10;99.90;;;;;;5033634;28;20530;-62
2023/10/20 08:05:53;;;;;;;7.80;7.03;;;6.00;99.90;;;;;;5032100;28;20517;-62
2023/10/20 08:08:20;;;;;;;4.00;3.70;;;6.00;99.90;;;;;;5031431;28;20483;-62
2023/10/20 08:10:48;;;;;;;6.60;3.97;;;6.00;99.90;;;;;;5045248;28;20495;-61
2023/10/20 08:13:14;;;;;;;3.40;3.20;;;6.00;99.90;;;;;;5044709;28;20497;-63
2023/10/20 08:15:42;;;;;;;3.30;3.10;;;6.00;99.90;;;;;;5031980;28;20463;-62
2023/10/20 08:18:09;;;;;;;11.50;10.13;;;6.10;99.90;;;;;;5028437;28;20574;-62
2023/10/20 08:20:36;;;;;;;4.60;3.60;;;5.90;96.80;;;;;;5031975;28;20479;-62
2023/10/20 08:23:03;;;;;;;4.53;3.80;;;5.90;81.20;;;;;;5035728;28;20473;-63
2023/10/20 08:25:29;;;;;;;3.83;3.53;;;5.90;99.90;;;;;;5051324;28;20519;-63
2023/10/20 08:27:57;;;;;;;3.27;2.97;;;5.90;99.90;;;;;;5052388;28;20462;-62
2023/10/20 08:30:24;;;;;;;3.00;2.80;;;6.00;99.90;;;;;;5037542;28;20446;-62
2023/10/20 08:32:51;;;;;;;2.80;2.60;;;6.00;99.90;;;;;;5027628;28;20458;-62
2023/10/20 08:35:17;;;;;;;3.40;3.10;;;6.00;99.90;;;;;;5038047;28;20458;-63
2023/10/20 08:37:44;;;;;;;5.30;4.90;;;6.00;94.00;;;;;;5030402;28;20567;-62
2023/10/20 08:40:12;;;;;;;3.80;3.50;;;6.00;22.90;;;;;;5030814;28;20851;-62
2023/10/20 08:42:39;;;;;;;3.60;3.30;;;6.00;76.30;;;;;;5028058;28;20458;-63
2023/10/20 08:45:11;;;;;;;5.50;4.67;;;6.00;21.90;;;;;;5034815;28;20458;-61
2023/10/20 08:47:39;;;;;;;9.23;4.93;;;6.00;25.90;;;;;;5025047;28;20478;-61
2023/10/20 08:50:09;;;;;;;3.10;2.90;;;6.00;24.40;;;;;;5028724;28;20455;-62
2023/10/20 08:52:36;;;;;;;5.97;3.87;;;6.00;25.00;;;;;;5038082;28;20458;-62
2023/10/20 08:55:07;;;;;;;3.40;3.07;;;6.00;22.60;;;;;;5035359;28;20486;-62
2023/10/20 08:57:33;;;;;;;2.57;2.37;;;6.00;82.50;;;;;;5030615;28;20490;-63
2023/10/20 09:00:00;;;;;;;7.40;3.60;;;6.00;82.70;;;;;;5027339;28;20482;-63
2023/10/20 09:02:38;;;;;;;3.23;3.03;;;5.90;84.40;;;;;;5024389;28;20482;-63
2023/10/20 09:05:05;;;;;;;3.27;3.07;;;6.00;85.00;;;;;;5037725;28;21660;-62
2023/10/20 09:07:31;;;;;;;3.77;3.23;;;5.90;99.90;;;;;;5029762;28;20533;-62
2023/10/20 09:09:58;;;;;;;3.10;2.80;;;6.00;99.90;;;;;;5029852;28;20500;-62
2023/10/20 09:12:26;;;;;;;4.73;2.83;;;5.90;99.90;;;;;;5035083;28;20469;-64
2023/10/20 09:14:53;;;;;;;7.50;3.30;;;5.90;99.90;;;;;;5028414;28;20904;-63
2023/10/20 09:17:23;;;;;;;3.37;3.07;;;5.80;99.90;;;;;;5033516;28;20493;-63
2023/10/20 09:19:51;;;;;;;5.93;3.10;;;5.80;99.90;;;;;;5032337;28;20487;-63
2023/10/20 09:22:27;;;;;;;5.17;3.40;;;5.80;99.90;;;;;;5029916;28;20517;-63
2023/10/20 09:24:55;;;;;;;4.30;4.00;;;5.90;99.90;;;;;;5024619;28;20469;-64
2023/10/20 09:27:22;;;;;;;7.70;4.10;;;5.90;99.90;;;;;;5033040;28;20513;-63
2023/10/20 09:29:50;;;;;;;3.47;3.20;;;5.90;99.90;;;;;;5033001;28;20444;-63
2023/10/20 09:32:18;;;;;;;3.60;3.30;;;5.80;99.90;;;;;;5030751;28;20470;-63
2023/10/20 09:34:45;;;;;;;3.10;2.87;;;5.80;99.90;;;;;;5046590;28;20457;-63
2023/10/20 09:37:15;;;;;;;2.60;2.40;;;5.80;99.90;;;;;;5039828;28;20539;-64
2023/10/20 09:39:44;;;;;;;2.70;2.60;;;5.80;99.90;;;;;;5024906;28;20532;-64
2023/10/20 09:42:14;;;;;;;3.33;3.03;;;5.80;99.90;;;;;;5036204;28;20500;-64
2023/10/20 09:44:47;;;;;;;3.30;2.87;;;5.80;99.90;;;;;;5023486;28;20814;-64
2023/10/20 09:47:20;;;;;;;3.10;2.90;;;5.70;99.90;;;;;;5047291;28;20481;-64
2023/10/20 09:49:47;;;;;;;2.20;2.10;;;5.70;99.90;;;;;;5026115;28;20462;-63
2023/10/20 09:52:15;;;;;;;2.70;2.50;;;5.80;99.90;;;;;;5031708;28;20496;-64
2023/10/20 09:54:42;;;;;;;2.63;2.43;;;5.70;99.90;;;;;;5038303;28;20450;-64
2023/10/20 09:57:12;;;;;;;4.57;2.60;;;5.70;99.90;;;;;;5033565;28;20532;-54
2023/10/20 09:59:39;;;;;;;4.13;3.10;;;5.70;99.90;;;;;;5033596;28;20520;-55
2023/10/20 10:02:06;;;;;;;2.40;2.30;;;5.70;99.90;;;;;;5037218;28;20443;-56
2023/10/20 10:04:36;;;;;;;2.90;2.70;;;5.70;99.90;;;;;;5036128;28;20455;-56
2023/10/20 10:07:04;;;;;;;2.77;2.57;;;5.60;99.90;;;;;;5038690;28;20522;-54
2023/10/20 10:09:37;;;;;;;2.87;2.77;;;5.70;99.90;;;;;;5029141;28;20945;-55
2023/10/20 10:12:08;;;;;;;2.90;2.70;;;5.70;99.90;;;;;;5034628;28;20557;-54
2023/10/20 10:14:35;;;;;;;2.60;2.40;;;5.70;99.90;;;;;;5033343;28;20485;-55
2023/10/20 10:17:08;;;;;;;4.10;3.20;;;5.70;99.90;;;;;;5033263;28;20506;-55
2023/10/20 10:19:34;;;;;;;2.63;2.43;;;5.70;99.90;;;;;;5029742;28;20469;-55
2023/10/20 10:22:02;;;;;;;2.60;2.40;;;5.70;99.90;;;;;;5032584;28;20485;-55
2023/10/20 10:24:34;;;;;;;2.33;2.20;;;5.70;99.90;;;;;;5036870;28;20463;-55
2023/10/20 10:27:06;;;;;;;3.83;2.57;;;5.70;99.90;;;;;;5032515;28;20482;-55
2023/10/20 10:29:50;;;;;;;2.97;2.60;;;5.70;99.90;;;;;;5041703;28;20474;-55
2023/10/20 10:32:18;;;;;;;2.40;2.20;;;5.70;99.90;;;;;;5035851;28;20455;-54
2023/10/20 10:34:46;;;;;;;6.53;2.50;;;5.70;99.90;;;;;;5035198;28;20494;-55
2023/10/20 10:37:13;;;;;;;2.43;2.30;;;5.70;99.90;;;;;;5040745;28;21015;-55
2023/10/20 10:39:40;;;;;;;3.10;2.90;;;5.60;99.90;;;;;;5040269;28;20463;-55
2023/10/20 10:42:08;;;;;;;13.00;2.73;;;5.70;99.90;;;;;;5026753;28;20969;-55
2023/10/20 10:44:36;;;;;;;4.43;3.43;;;5.70;99.90;;;;;;5034055;28;20449;-55
2023/10/20 10:47:04;;;;;;;2.30;2.20;;;5.60;99.90;;;;;;5047335;28;20562;-55
2023/10/20 10:49:31;;;;;;;19.00;10.40;;;5.60;99.90;;;;;;5032457;28;20520;-54
2023/10/20 10:52:03;;;;;;;3.70;3.30;;;5.60;99.90;;;;;;5041353;28;20440;-57
2023/10/20 10:54:33;;;;;;;7.00;2.80;;;5.70;99.90;;;;;;5033438;28;20447;-55
2023/10/20 10:57:00;;;;;;;2.60;2.50;;;5.70;99.90;;;;;;5035274;28;20498;-54
2023/10/20 10:59:28;;;;;;;3.00;2.80;;;5.60;99.90;;;;;;5037315;28;20593;-55
2023/10/20 11:01:56;;;;;;;2.63;2.50;;;5.60;99.90;;;;;;5037368;28;20491;-55
2023/10/20 11:04:23;;;;;;;2.60;2.50;;;5.70;99.90;;;;;;5051835;28;20931;-55
2023/10/20 11:06:50;;;;;;;2.33;2.13;;;5.70;99.90;;;;;;5052470;28;20476;-55
2023/10/20 11:09:19;;;;;;;3.37;3.07;;;5.70;99.90;;;;;;5033234;28;20619;-55
2023/10/20 11:11:48;;;;;;;2.30;2.20;;;5.70;99.90;;;;;;5036717;28;20502;-55
2023/10/20 11:14:17;;;;;;;2.43;2.33;;;5.70;99.90;;;;;;5043444;28;20577;-56
2023/10/20 11:16:46;;;;;;;3.37;3.07;;;5.60;99.90;;;;;;5032784;28;20462;-56
2023/10/20 11:19:13;;;;;;;7.00;4.30;;;5.70;99.90;;;;;;5038676;28;20947;-56
2023/10/20 11:21:47;;;;;;;6.00;5.40;;;5.60;99.90;;;;;;5050196;28;20532;-55
2023/10/20 11:24:28;;;;;;;2.57;2.37;;;5.60;99.90;;;;;;5028987;28;20518;-55
2023/10/20 11:26:59;;;;;;;4.77;4.27;;;5.70;99.90;;;;;;5030575;28;20509;-55
2023/10/20 11:29:28;;;;;;;5.20;4.70;;;5.70;99.90;;;;;;5028815;28;20829;-55
2023/10/20 11:31:57;;;;;;;3.70;3.40;;;5.70;99.90;;;;;;5034910;28;20462;-56
2023/10/20 11:34:25;;;;;;;2.40;1.80;;;5.70;99.90;;;;;;5026389;28;20459;-56
2023/10/20 11:36:52;;;;;;;5.90;3.40;;;5.60;99.90;;;;;;5025690;28;20482;-56
2023/10/20 11:39:21;;;;;;;3.20;2.23;;;5.70;99.90;;;;;;5026315;28;20459;-57
2023/10/20 11:41:48;;;;;;;4.97;4.47;;;5.70;99.90;;;;;;5035121;28;20518;-56
2023/10/20 11:44:14;;;;;;;3.17;2.97;;;5.70;99.90;;;;;;5022767;28;20622;-55
2023/10/20 11:46:43;;;;;;;9.83;6.70;;;5.60;99.90;;;;;;5029110;28;20543;-57
2023/10/20 11:49:11;;;;;;;8.37;4.50;;;5.60;99.90;;;;;;5027655;28;20874;-58
2023/10/20 11:51:38;;;;;;;1.60;1.50;;;5.60;99.90;;;;;;5035703;28;20505;-56
2023/10/20 11:54:05;;;;;;;2.10;1.93;;;5.60;99.90;;;;;;5020538;28;20549;-56
2023/10/20 11:56:31;;;;;;;1.63;1.53;;;5.60;99.90;;;;;;5029179;28;20956;-57
2023/10/20 11:58:59;;;;;;;1.57;1.47;;;5.70;99.90;;;;;;5044096;28;20447;-56
2023/10/20 12:01:25;;;;;;;3.27;1.70;;;5.60;99.90;;;;;;5034164;28;20486;-56
2023/10/20 12:03:52;;;;;;;2.10;1.90;;;5.60;99.90;;;;;;5031384;28;20489;-57
2023/10/20 12:06:20;;;;;;;2.03;1.93;;;5.60;99.90;;;;;;5020023;28;20493;-56
2023/10/20 12:08:46;;;;;;;1.63;1.53;;;5.70;99.90;;;;;;5042900;28;20932;-56
2023/10/20 12:11:13;;;;;;;4.50;1.93;;;5.70;99.90;;;;;;5042663;28;20484;-55
2023/10/20 12:13:42;;;;;;;1.30;1.30;;;5.70;99.90;;;;;;5037255;28;20462;-56
2023/10/20 12:16:08;;;;;;;2.77;1.60;;;5.70;99.90;;;;;;5031909;28;20454;-56
2023/10/20 12:18:35;;;;;;;4.20;1.90;;;5.60;99.90;;;;;;5037962;28;20475;-56
2023/10/20 12:21:02;;;;;;;6.50;2.10;;;5.70;99.90;;;;;;5035598;28;20513;-56
2023/10/20 12:23:30;;;;;;;2.40;2.20;;;5.70;99.90;;;;;;5041937;28;20519;-56
2023/10/20 12:25:56;;;;;;;6.73;3.23;;;5.70;99.90;;;;;;5026742;28;20450;-56
2023/10/20 12:28:23;;;;;;;1.83;1.73;;;5.70;99.90;;;;;;5031819;28;20482;-56
2023/10/20 12:30:50;;;;;;;1.67;1.47;;;5.70;99.90;;;;;;5031541;28;20442;-56
2023/10/20 12:33:17;;;;;;;1.90;1.80;;;5.70;99.90;;;;;;5029562;28;20463;-56
2023/10/20 12:35:43;;;;;;;1.60;1.50;;;5.70;99.90;;;;;;5028985;28;20493;-55
2023/10/20 12:38:10;;;;;;;1.60;1.50;;;5.70;99.90;;;;;;5038714;28;20478;-56
2023/10/20 12:40:40;;;;;;;2.13;1.97;;;5.70;99.90;;;;;;5031939;28;20886;-57
2023/10/20 12:43:09;;;;;;;1.73;1.63;;;5.70;99.90;;;;;;5030668;28;20462;-55
2023/10/20 12:45:37;;;;;;;1.40;1.30;;;5.70;99.90;;;;;;5030494;28;20463;-56
2023/10/20 12:48:04;;;;;;;1.30;1.10;;;5.70;99.90;;;;;;5028706;28;20521;-56
2023/10/20 12:50:32;;;;;;;2.00;1.20;;;5.70;99.90;;;;;;5034084;28;20470;-56
2023/10/20 12:52:59;;;;;;;6.13;5.73;;;5.60;99.90;;;;;;5030197;28;20877;-55
2023/10/20 12:55:26;;;;;;;1.50;1.40;;;5.70;99.90;;;;;;5029364;28;20473;-56
2023/10/20 12:57:54;;;;;;;1.00;1.00;;;5.80;99.90;;;;;;5029569;28;20486;-56
2023/10/20 13:00:21;;;;;;;1.43;1.00;;;5.80;99.90;;;;;;5028869;28;20485;-55
2023/10/20 13:02:49;;;;;;;3.20;1.20;;;5.70;99.90;;;;;;5032706;28;20517;-57
2023/10/20 13:05:16;;;;;;;1.10;1.10;;;5.70;99.90;;;;;;5029447;28;20532;-56
2023/10/20 13:07:43;;;;;;;1.13;1.07;;;5.70;99.90;;;;;;5032700;28;20486;-56
2023/10/20 13:10:10;;;;;;;1.20;1.20;;;5.70;99.90;;;;;;5027393;28;20447;-57
2023/10/20 13:12:37;;;;;;;2.07;1.97;;;5.70;99.90;;;;;;5030977;28;20534;-57
2023/10/20 13:15:09;;;;;;;1.00;1.00;;;5.70;99.90;;;;;;5034819;28;20865;-57
2023/10/20 13:17:36;;;;;;;1.00;1.00;;;5.70;99.90;;;;;;5032788;28;20498;-57
2023/10/20 13:20:03;;;;;;;1.13;1.03;;;5.60;99.90;;;;;;5032456;28;20876;-57
2023/10/20 13:22:30;;;;;;;1.10;1.00;;;5.70;99.90;;;;;;5031195;28;20483;-57
2023/10/20 13:24:57;;;;;;;1.50;1.40;;;5.70;99.90;;;;;;5037853;28;20536;-56